Time;durP1;ratioP1;P1;durP2;ratioP2;P2;SDS_P1;SDS_P2;PMS_P1;PMS_P2;Temp;Humidity;BMP_temperature;BMP_pressure;BME280_temperature;BME280_humidity;BME280_pressure;Samples;Min_cycle;Max_cycle;Signal;HPM_P1;HPM_P2
2022/08/25 00:00:19;;;;;;;5.35;3.67;;;;;;;;;;5076934;28;20091;-85
2022/08/25 00:02:45;;;;;;;5.00;4.05;;;;;;;;;;5077073;28;20035;-84
2022/08/25 00:05:11;;;;;;;7.10;3.88;;;;;;;;;;5077115;28;20031;-85
2022/08/25 00:07:37;;;;;;;8.65;4.40;;;;;;;;;;5095479;28;20028;-85
2022/08/25 00:10:05;;;;;;;5.30;3.97;;;;;;;;;;5095321;28;20020;-85
2022/08/25 00:12:31;;;;;;;8.48;4.00;;;;;;;;;;5077039;28;20119;-85
2022/08/25 00:14:57;;;;;;;8.23;4.28;;;;;;;;;;5076592;28;20129;-85
2022/08/25 00:17:23;;;;;;;7.10;4.50;;;;;;;;;;5076455;28;20470;-86
2022/08/25 00:19:49;;;;;;;6.28;3.88;;;;;;;;;;5095000;28;20092;-86
2022/08/25 00:22:15;;;;;;;6.82;4.25;;;;;;;;;;5094962;28;20024;-86
2022/08/25 00:24:42;;;;;;;8.65;4.00;;;;;;;;;;5085605;28;20062;-85
2022/08/25 00:27:11;;;;;;;7.95;4.03;;;;;;;;;;5096721;28;20027;-85
2022/08/25 00:29:37;;;;;;;4.80;4.03;;;;;;;;;;5115109;28;20031;-85
2022/08/25 00:32:04;;;;;;;6.65;3.78;;;;;;;;;;5096366;28;20050;-85
2022/08/25 00:34:33;;;;;;;7.80;4.78;;;;;;;;;;5115214;28;20057;-85
2022/08/25 00:36:59;;;;;;;4.07;3.70;;;;;;;;;;5096804;28;20023;-86
2022/08/25 00:39:26;;;;;;;5.35;3.90;;;;;;;;;;5096490;28;20034;-85
2022/08/25 00:41:54;;;;;;;5.70;4.22;;;;;;;;;;5115031;28;20023;-85
2022/08/25 00:44:20;;;;;;;9.85;4.22;;;;;;;;;;5115211;28;20016;-85
2022/08/25 00:46:55;;;;;;;7.07;3.80;;;;;;;;;;5096528;28;20675;-85
2022/08/25 00:49:29;;;;;;;9.75;4.10;;;;;;;;;;5096322;28;20101;-85
2022/08/25 00:52:00;;;;;;;4.72;3.70;;;;;;;;;;5096133;28;20031;-84
2022/08/25 00:54:32;;;;;;;6.32;3.90;;;;;;;;;;5114702;28;20027;-84
2022/08/25 00:56:59;;;;;;;4.57;3.95;;;;;;;;;;5112578;28;20019;-85
2022/08/25 00:59:26;;;;;;;4.68;3.78;;;;;;;;;;5076116;28;20079;-85
2022/08/25 01:01:52;;;;;;;6.65;3.60;;;;;;;;;;5093380;28;20039;-85
2022/08/25 01:04:18;;;;;;;5.60;3.30;;;;;;;;;;5094128;28;20031;-86
2022/08/25 01:06:45;;;;;;;10.50;3.60;;;;;;;;;;5075963;28;20024;-85
2022/08/25 01:09:15;;;;;;;4.28;3.20;;;;;;;;;;5075819;28;20043;-85
2022/08/25 01:11:42;;;;;;;6.28;3.80;;;;;;;;;;5075825;28;20060;-85
2022/08/25 01:14:09;;;;;;;5.38;3.20;;;;;;;;;;5075693;28;20035;-84
2022/08/25 01:16:36;;;;;;;5.32;3.45;;;;;;;;;;5075564;28;20493;-85
2022/08/25 01:19:02;;;;;;;7.35;3.00;;;;;;;;;;5075624;28;20056;-85
2022/08/25 01:21:30;;;;;;;7.63;3.28;;;;;;;;;;5075544;28;20035;-85
2022/08/25 01:23:57;;;;;;;4.07;2.92;;;;;;;;;;5075419;28;20470;-85
2022/08/25 01:26:33;;;;;;;4.93;3.45;;;;;;;;;;5075528;28;20553;-84
2022/08/25 01:31:45;;;;;;;5.63;2.90;;;;;;;;;;5094064;28;20035;-85
2022/08/25 01:34:12;;;;;;;3.85;2.78;;;;;;;;;;5075368;28;20381;-85
2022/08/25 01:36:38;;;;;;;6.93;3.88;;;;;;;;;;5110014;28;20015;-85
2022/08/25 01:39:05;;;;;;;8.80;3.00;;;;;;;;;;5113868;28;20434;-85
2022/08/25 01:41:39;;;;;;;5.63;2.90;;;;;;;;;;5113691;28;20099;-85
2022/08/25 01:44:05;;;;;;;4.60;2.85;;;;;;;;;;5095443;28;20034;-85
2022/08/25 01:46:32;;;;;;;5.50;2.95;;;;;;;;;;5113949;28;20069;-85
2022/08/25 01:49:00;;;;;;;6.07;2.72;;;;;;;;;;5113632;28;20024;-85
2022/08/25 01:51:27;;;;;;;8.52;2.70;;;;;;;;;;5113652;28;20015;-85
2022/08/25 01:53:53;;;;;;;5.90;3.08;;;;;;;;;;5113364;28;20023;-85
2022/08/25 01:56:19;;;;;;;4.95;2.40;;;;;;;;;;5095129;28;20020;-84
2022/08/25 01:58:47;;;;;;;4.95;2.40;;;;;;;;;;5113240;28;20051;-85
2022/08/25 02:01:16;;;;;;;5.32;2.85;;;;;;;;;;5095015;28;20410;-84
2022/08/25 02:03:43;;;;;;;3.78;2.88;;;;;;;;;;5095118;28;20034;-85
2022/08/25 02:06:14;;;;;;;5.65;2.50;;;;;;;;;;5094819;28;20024;-85
2022/08/25 02:08:41;;;;;;;5.60;2.75;;;;;;;;;;5094861;28;20027;-85
2022/08/25 02:11:10;;;;;;;6.03;2.95;;;;;;;;;;5113294;28;20024;-85
2022/08/25 02:13:36;;;;;;;3.95;2.60;;;;;;;;;;5112827;28;20034;-84
2022/08/25 02:16:03;;;;;;;4.32;2.90;;;;;;;;;;5094895;28;20110;-85
2022/08/25 02:18:29;;;;;;;9.77;2.80;;;;;;;;;;5113152;28;20065;-85
2022/08/25 02:20:55;;;;;;;3.95;2.70;;;;;;;;;;5113047;28;20050;-85
2022/08/25 02:23:21;;;;;;;6.03;2.90;;;;;;;;;;5094657;28;20035;-86
2022/08/25 02:25:47;;;;;;;4.20;2.80;;;;;;;;;;5076719;28;20040;-85
2022/08/25 02:28:14;;;;;;;6.32;2.60;;;;;;;;;;5074314;28;20347;-85
2022/08/25 02:30:41;;;;;;;6.15;2.53;;;;;;;;;;5092631;28;20461;-85
2022/08/25 02:33:07;;;;;;;7.72;2.88;;;;;;;;;;5074207;28;20020;-85
2022/08/25 02:35:33;;;;;;;5.10;2.92;;;;;;;;;;5092325;28;20040;-85
2022/08/25 02:37:59;;;;;;;6.03;2.80;;;;;;;;;;5074319;28;20016;-85
2022/08/25 02:40:26;;;;;;;5.93;3.00;;;;;;;;;;5074113;28;20448;-85
2022/08/25 02:42:52;;;;;;;4.28;2.45;;;;;;;;;;5074390;28;20390;-85
2022/08/25 02:45:19;;;;;;;5.93;2.80;;;;;;;;;;5074085;28;20024;-85
2022/08/25 02:47:45;;;;;;;5.70;2.70;;;;;;;;;;5074326;28;20040;-85
2022/08/25 02:50:11;;;;;;;4.97;2.75;;;;;;;;;;5092747;28;20047;-85
2022/08/25 02:52:38;;;;;;;4.75;2.55;;;;;;;;;;5092341;28;20031;-85
2022/08/25 02:55:06;;;;;;;4.13;2.58;;;;;;;;;;5074286;28;20351;-85
2022/08/25 02:57:35;;;;;;;6.93;2.85;;;;;;;;;;5081465;28;20031;-85
2022/08/25 03:00:01;;;;;;;4.60;2.65;;;;;;;;;;5112603;28;20426;-85
2022/08/25 03:02:27;;;;;;;3.42;2.47;;;;;;;;;;5112934;28;20483;-85
2022/08/25 03:04:54;;;;;;;4.43;2.50;;;;;;;;;;5112957;28;20350;-85
2022/08/25 03:07:21;;;;;;;6.97;2.40;;;;;;;;;;5112812;28;20027;-85
2022/08/25 03:09:47;;;;;;;6.43;2.50;;;;;;;;;;5112630;28;20064;-85
2022/08/25 03:12:13;;;;;;;4.60;2.53;;;;;;;;;;5112671;28;20076;-85
2022/08/25 03:14:40;;;;;;;5.20;2.72;;;;;;;;;;5094148;28;20023;-85
2022/08/25 03:17:06;;;;;;;5.10;2.50;;;;;;;;;;5112709;28;20019;-85
2022/08/25 03:19:32;;;;;;;6.35;2.40;;;;;;;;;;5112458;28;20095;-85
2022/08/25 03:21:59;;;;;;;8.13;2.63;;;;;;;;;;5112422;28;20024;-85
2022/08/25 03:24:25;;;;;;;4.70;2.88;;;;;;;;;;5094674;28;20082;-85
2022/08/25 03:26:54;;;;;;;5.80;2.50;;;;;;;;;;5098474;28;20019;-85
2022/08/25 03:29:25;;;;;;;5.65;2.35;;;;;;;;;;5098030;28;20028;-85
2022/08/25 03:31:53;;;;;;;7.25;2.67;;;;;;;;;;5097913;28;20031;-85
2022/08/25 03:34:20;;;;;;;5.45;3.05;;;;;;;;;;5097940;28;20015;-85
2022/08/25 03:36:47;;;;;;;5.30;2.45;;;;;;;;;;5080408;28;20385;-85
2022/08/25 03:39:13;;;;;;;4.22;2.67;;;;;;;;;;5095836;28;20024;-85
2022/08/25 03:41:39;;;;;;;6.00;2.40;;;;;;;;;;5095833;28;20070;-85
2022/08/25 03:44:06;;;;;;;5.65;2.45;;;;;;;;;;5077503;28;20032;-85
2022/08/25 03:46:34;;;;;;;5.28;2.75;;;;;;;;;;5077407;28;20085;-85
2022/08/25 03:49:01;;;;;;;5.70;2.70;;;;;;;;;;5095690;28;20024;-85
2022/08/25 03:51:29;;;;;;;5.38;2.65;;;;;;;;;;5095557;28;20024;-85
2022/08/25 03:53:55;;;;;;;5.30;2.58;;;;;;;;;;5077177;28;20823;-85
2022/08/25 03:56:22;;;;;;;7.75;2.80;;;;;;;;;;5095904;28;20043;-85
2022/08/25 03:58:48;;;;;;;4.40;2.33;;;;;;;;;;5077135;28;20459;-85
2022/08/25 04:01:15;;;;;;;6.03;2.60;;;;;;;;;;5095678;28;20031;-85
2022/08/25 04:03:41;;;;;;;7.38;2.60;;;;;;;;;;5095164;28;20386;-85
2022/08/25 04:06:08;;;;;;;3.08;2.20;;;;;;;;;;5076895;28;20024;-85
2022/08/25 04:08:34;;;;;;;5.88;2.30;;;;;;;;;;5095269;28;20027;-85
2022/08/25 04:11:04;;;;;;;4.65;2.58;;;;;;;;;;5095151;28;20081;-85
2022/08/25 04:13:31;;;;;;;4.90;2.38;;;;;;;;;;5076954;28;20028;-84
2022/08/25 04:15:57;;;;;;;7.00;2.30;;;;;;;;;;5076764;28;20051;-85
2022/08/25 04:18:23;;;;;;;5.43;2.65;;;;;;;;;;5076650;28;20024;-85
2022/08/25 04:20:49;;;;;;;5.00;2.45;;;;;;;;;;5076731;28;20035;-85
2022/08/25 04:23:15;;;;;;;8.15;2.17;;;;;;;;;;5094953;28;20024;-84
2022/08/25 04:25:41;;;;;;;10.52;2.30;;;;;;;;;;5095014;28;20027;-85
2022/08/25 04:28:08;;;;;;;4.75;2.40;;;;;;;;;;5094031;28;20035;-84
2022/08/25 04:30:34;;;;;;;5.57;2.60;;;;;;;;;;5093975;28;20036;-85
2022/08/25 04:33:00;;;;;;;5.60;2.50;;;;;;;;;;5076134;28;20459;-85
2022/08/25 04:35:26;;;;;;;8.88;2.28;;;;;;;;;;5095017;28;20028;-84
2022/08/25 04:37:52;;;;;;;6.85;3.05;;;;;;;;;;5095066;28;20069;-85
2022/08/25 04:40:19;;;;;;;5.05;2.20;;;;;;;;;;5094617;28;20074;-85
2022/08/25 04:42:45;;;;;;;8.52;2.17;;;;;;;;;;5094395;28;20059;-84
2022/08/25 04:45:11;;;;;;;8.05;2.30;;;;;;;;;;5094708;28;20056;-85
2022/08/25 04:47:38;;;;;;;5.70;2.33;;;;;;;;;;5094414;28;20122;-84
2022/08/25 04:50:05;;;;;;;6.65;2.60;;;;;;;;;;5076122;28;20028;-85
2022/08/25 04:52:31;;;;;;;14.65;2.53;;;;;;;;;;5076161;28;20069;-84
2022/08/25 04:54:58;;;;;;;8.98;3.10;;;;;;;;;;5075963;28;20024;-85
2022/08/25 04:57:24;;;;;;;11.68;2.50;;;;;;;;;;5082227;28;20420;-85
2022/08/25 04:59:50;;;;;;;7.47;2.25;;;;;;;;;;5095855;28;20478;-85
2022/08/25 05:02:16;;;;;;;4.45;2.33;;;;;;;;;;5096256;28;20076;-85
2022/08/25 05:04:43;;;;;;;7.88;2.20;;;;;;;;;;5114544;28;20020;-84
2022/08/25 05:07:09;;;;;;;8.45;2.40;;;;;;;;;;5095957;28;20450;-84
2022/08/25 05:09:36;;;;;;;7.15;2.70;;;;;;;;;;5096001;28;20425;-85
2022/08/25 05:12:03;;;;;;;7.35;2.63;;;;;;;;;;5096182;28;20028;-85
2022/08/25 05:14:29;;;;;;;4.18;2.15;;;;;;;;;;5114145;28;20450;-85
2022/08/25 05:16:55;;;;;;;6.60;2.53;;;;;;;;;;5095987;28;20033;-85
2022/08/25 05:19:22;;;;;;;6.10;2.30;;;;;;;;;;5095759;28;20024;-85
2022/08/25 05:21:48;;;;;;;5.70;2.28;;;;;;;;;;5095657;28;20087;-85
2022/08/25 05:24:15;;;;;;;5.35;2.40;;;;;;;;;;5095735;28;20461;-85
2022/08/25 05:26:41;;;;;;;4.10;2.28;;;;;;;;;;5113882;28;20028;-85
2022/08/25 05:29:09;;;;;;;5.60;2.80;;;;;;;;;;5097675;28;20024;-85
2022/08/25 05:31:36;;;;;;;5.15;2.25;;;;;;;;;;5099649;28;20028;-85
2022/08/25 05:34:06;;;;;;;5.72;2.40;;;;;;;;;;5113864;28;20026;-85
2022/08/25 05:36:32;;;;;;;6.95;2.30;;;;;;;;;;5080095;28;20040;-85
2022/08/25 05:38:59;;;;;;;4.93;2.30;;;;;;;;;;5075100;28;20508;-85
2022/08/25 05:41:27;;;;;;;12.20;2.63;;;;;;;;;;5075078;28;20115;-85
2022/08/25 05:43:53;;;;;;;7.82;2.50;;;;;;;;;;5074930;28;20023;-85
2022/08/25 05:46:20;;;;;;;8.32;2.40;;;;;;;;;;5110398;28;20068;-85
2022/08/25 05:48:47;;;;;;;5.38;2.60;;;;;;;;;;5096910;28;20023;-79
2022/08/25 05:51:13;;;;;;;26.30;3.65;;;;;;;;;;5095781;28;20027;-89
2022/08/25 05:53:41;;;;;;;10.13;2.33;;;;;;;;;;5103917;27;20476;-82
2022/08/25 05:56:07;;;;;;;8.57;2.75;;;;;;;;;;5133947;27;20026;-82
2022/08/25 05:58:34;;;;;;;4.72;2.53;;;;;;;;;;5133631;27;20362;-81
2022/08/25 06:03:46;;;;;;;5.05;2.58;;;;;;;;;;5133923;27;20173;-82
2022/08/25 06:06:12;;;;;;;8.70;2.63;;;;;;;;;;5124664;27;20077;-82
2022/08/25 06:08:39;;;;;;;8.88;2.58;;;;;;;;;;5113488;28;20015;-82
2022/08/25 06:11:06;;;;;;;6.45;2.42;;;;;;;;;;5113628;28;20028;-82
2022/08/25 06:13:32;;;;;;;10.90;2.45;;;;;;;;;;5127469;27;20023;-83
2022/08/25 06:15:59;;;;;;;5.90;2.60;;;;;;;;;;5134212;27;20046;-82
2022/08/25 06:18:25;;;;;;;7.13;2.30;;;;;;;;;;5133977;27;20469;-82
2022/08/25 06:20:52;;;;;;;9.00;2.72;;;;;;;;;;5133851;27;20586;-82
2022/08/25 06:23:18;;;;;;;13.10;3.55;;;;;;;;;;5133922;27;20023;-83
2022/08/25 06:25:49;;;;;;;12.70;2.50;;;;;;;;;;5116534;27;20179;-84
2022/08/25 06:28:15;;;;;;;7.82;2.25;;;;;;;;;;5127771;27;20542;-83
2022/08/25 06:30:41;;;;;;;6.53;2.60;;;;;;;;;;5133699;27;20029;-84
2022/08/25 06:33:07;;;;;;;7.18;2.53;;;;;;;;;;5114968;27;20389;-87
2022/08/25 06:35:33;;;;;;;10.50;2.63;;;;;;;;;;5133604;27;20015;-85
2022/08/25 06:37:59;;;;;;;4.13;2.40;;;;;;;;;;5134032;27;20369;-85
2022/08/25 06:40:25;;;;;;;9.85;2.70;;;;;;;;;;5133677;28;20038;-85
2022/08/25 06:42:51;;;;;;;3.90;2.15;;;;;;;;;;5133926;28;20038;-84
2022/08/25 06:45:18;;;;;;;5.38;2.55;;;;;;;;;;5115468;28;20031;-84
2022/08/25 06:47:44;;;;;;;4.28;2.40;;;;;;;;;;5133745;28;20034;-84
2022/08/25 06:50:10;;;;;;;4.78;2.55;;;;;;;;;;5134049;28;20120;-84
2022/08/25 06:52:36;;;;;;;5.93;2.13;;;;;;;;;;5134021;28;20023;-84
2022/08/25 06:55:02;;;;;;;10.40;3.00;;;;;;;;;;5133785;28;20358;-83
2022/08/25 06:57:28;;;;;;;9.23;2.70;;;;;;;;;;5099491;28;20114;-82
2022/08/25 06:59:54;;;;;;;5.28;2.38;;;;;;;;;;5112928;28;20066;-82
2022/08/25 07:02:20;;;;;;;5.53;2.20;;;;;;;;;;5117462;28;20028;-82
2022/08/25 07:04:46;;;;;;;9.20;2.50;;;;;;;;;;5116986;28;20416;-82
2022/08/25 07:07:12;;;;;;;6.15;2.28;;;;;;;;;;5116825;28;20047;-83
2022/08/25 07:09:38;;;;;;;8.15;2.38;;;;;;;;;;5122458;27;20461;-82
2022/08/25 07:12:05;;;;;;;10.40;2.60;;;;;;;;;;5119957;27;20433;-82
2022/08/25 07:14:31;;;;;;;7.05;2.33;;;;;;;;;;5116618;28;20051;-82
2022/08/25 07:16:57;;;;;;;7.45;2.60;;;;;;;;;;5117397;28;20410;-82
2022/08/25 07:19:23;;;;;;;8.20;2.30;;;;;;;;;;5106444;28;20023;-82
2022/08/25 07:21:50;;;;;;;8.70;2.47;;;;;;;;;;5128578;27;20025;-82
2022/08/25 07:24:16;;;;;;;6.78;2.33;;;;;;;;;;5137146;27;20029;-82
2022/08/25 07:26:45;;;;;;;7.72;2.70;;;;;;;;;;5118435;27;20035;-81
2022/08/25 07:29:17;;;;;;;7.65;2.40;;;;;;;;;;5136752;27;20046;-82
2022/08/25 07:31:43;;;;;;;13.30;2.30;;;;;;;;;;5137017;27;20031;-80
2022/08/25 07:36:54;;;;;;;5.50;2.33;;;;;;;;;;5116601;28;20093;-88
2022/08/25 07:39:21;;;;;;;8.52;2.70;;;;;;;;;;5116018;28;20024;-85
2022/08/25 07:41:47;;;;;;;11.55;2.70;;;;;;;;;;5115920;28;20015;-86
2022/08/25 07:44:13;;;;;;;10.32;2.55;;;;;;;;;;5115886;28;20023;-87
2022/08/25 07:46:40;;;;;;;12.98;3.35;;;;;;;;;;5097555;28;20050;-86
2022/08/25 07:49:06;;;;;;;7.65;2.40;;;;;;;;;;5097419;28;20024;-86
2022/08/25 07:51:33;;;;;;;7.45;2.15;;;;;;;;;;5097389;28;20027;-86
2022/08/25 07:53:59;;;;;;;11.32;2.55;;;;;;;;;;5115642;28;20814;-86
2022/08/25 07:56:25;;;;;;;5.20;2.42;;;;;;;;;;5115752;28;20194;-86
2022/08/25 07:58:51;;;;;;;5.28;2.60;;;;;;;;;;5115636;28;20044;-86
2022/08/25 08:01:18;;;;;;;5.40;2.28;;;;;;;;;;5115885;28;20027;-86
2022/08/25 08:03:44;;;;;;;6.75;2.20;;;;;;;;;;5115549;28;20032;-86
2022/08/25 08:06:12;;;;;;;10.23;2.47;;;;;;;;;;5115839;28;20385;-86
2022/08/25 08:08:42;;;;;;;7.93;2.78;;;;;;;;;;5116121;28;20034;-86
2022/08/25 08:11:13;;;;;;;4.53;2.10;;;;;;;;;;5115592;28;20525;-87
2022/08/25 08:13:39;;;;;;;7.35;2.22;;;;;;;;;;5115583;28;20028;-86
2022/08/25 08:16:09;;;;;;;8.35;2.45;;;;;;;;;;5115380;28;20024;-86
2022/08/25 08:18:35;;;;;;;12.35;2.70;;;;;;;;;;5115189;28;20034;-86
2022/08/25 08:21:01;;;;;;;8.52;2.40;;;;;;;;;;5115329;28;20350;-86
2022/08/25 08:23:28;;;;;;;4.93;2.03;;;;;;;;;;5115333;28;20031;-86
2022/08/25 08:25:54;;;;;;;4.43;2.42;;;;;;;;;;5077890;28;20020;-86
2022/08/25 08:28:21;;;;;;;11.00;2.20;;;;;;;;;;5094578;28;20081;-86
2022/08/25 08:30:47;;;;;;;6.95;2.58;;;;;;;;;;5076352;28;20346;-86
2022/08/25 08:33:13;;;;;;;7.78;2.63;;;;;;;;;;5094692;28;20410;-86
2022/08/25 08:35:40;;;;;;;5.85;2.58;;;;;;;;;;5094764;28;20024;-86
2022/08/25 08:38:06;;;;;;;6.75;2.60;;;;;;;;;;5094291;28;20057;-86
2022/08/25 08:40:37;;;;;;;6.93;2.55;;;;;;;;;;5076153;28;20036;-86
2022/08/25 08:43:06;;;;;;;8.27;2.67;;;;;;;;;;5094242;28;20028;-86
2022/08/25 08:45:47;;;;;;;7.88;2.65;;;;;;;;;;5094560;28;20106;-86
2022/08/25 08:48:26;;;;;;;5.85;2.42;;;;;;;;;;5094353;28;20020;-86
2022/08/25 08:50:52;;;;;;;10.43;2.78;;;;;;;;;;5094458;28;20103;-85
2022/08/25 08:53:31;;;;;;;4.78;2.28;;;;;;;;;;5094065;28;20465;-86
2022/08/25 08:55:59;;;;;;;7.28;2.70;;;;;;;;;;5075804;28;20044;-85
2022/08/25 08:58:30;;;;;;;9.80;3.42;;;;;;;;;;5108498;28;20075;-86
2022/08/25 09:00:57;;;;;;;5.28;2.47;;;;;;;;;;5114689;28;20023;-86
2022/08/25 09:03:35;;;;;;;6.90;3.03;;;;;;;;;;5114560;28;20095;-86
2022/08/25 09:06:18;;;;;;;5.13;2.42;;;;;;;;;;5095776;28;20023;-86
2022/08/25 09:08:44;;;;;;;7.15;2.10;;;;;;;;;;5114189;28;20031;-86
2022/08/25 09:11:16;;;;;;;8.40;2.40;;;;;;;;;;5114377;28;20078;-86
2022/08/25 09:14:12;;;;;;;7.78;2.20;;;;;;;;;;5114254;28;20119;-86
2022/08/25 09:16:55;;;;;;;11.25;2.40;;;;;;;;;;5096742;28;20504;-85
2022/08/25 09:19:24;;;;;;;11.25;2.60;;;;;;;;;;5105515;27;20354;-85
2022/08/25 09:21:59;;;;;;;5.78;2.10;;;;;;;;;;5083940;28;20055;-85
2022/08/25 09:24:29;;;;;;;22.85;3.05;;;;;;;;;;5087602;28;20055;-83
2022/08/25 09:27:05;;;;;;;9.65;1.90;;;;;;;;;;5106543;28;20505;-84
2022/08/25 09:29:50;;;;;;;8.40;2.05;;;;;;;;;;5102831;28;20042;-85
2022/08/25 09:32:17;;;;;;;5.35;2.22;;;;;;;;;;5101717;28;20429;-85
2022/08/25 09:34:43;;;;;;;4.57;1.73;;;;;;;;;;5089309;28;20059;-84
2022/08/25 09:37:09;;;;;;;5.32;2.20;;;;;;;;;;5085709;28;20028;-84
2022/08/25 09:39:35;;;;;;;6.03;1.90;;;;;;;;;;5100301;28;20123;-84
2022/08/25 09:42:02;;;;;;;10.18;2.10;;;;;;;;;;5099454;28;20035;-84
2022/08/25 09:44:32;;;;;;;8.35;1.85;;;;;;;;;;5113521;28;20031;-84
2022/08/25 09:47:04;;;;;;;9.35;2.00;;;;;;;;;;5094213;28;20381;-84
2022/08/25 09:49:44;;;;;;;4.07;1.80;;;;;;;;;;5095671;28;20400;-84
2022/08/25 09:52:25;;;;;;;4.70;1.85;;;;;;;;;;5095480;28;20030;-84
2022/08/25 09:54:52;;;;;;;5.93;1.90;;;;;;;;;;5113882;28;20016;-84
2022/08/25 09:57:31;;;;;;;4.35;2.10;;;;;;;;;;5113720;28;20023;-84
2022/08/25 09:59:57;;;;;;;7.88;2.03;;;;;;;;;;5113586;28;20050;-84
2022/08/25 10:02:24;;;;;;;23.17;3.35;;;;;;;;;;5113822;28;20023;-84
2022/08/25 10:04:51;;;;;;;8.63;1.92;;;;;;;;;;5113708;28;20094;-82
2022/08/25 10:07:20;;;;;;;4.85;1.90;;;;;;;;;;5095371;28;20385;-87
2022/08/25 10:09:52;;;;;;;5.25;1.80;;;;;;;;;;5113728;28;20118;-83
2022/08/25 10:12:20;;;;;;;7.63;2.13;;;;;;;;;;5119145;27;20022;-83
2022/08/25 10:14:47;;;;;;;6.25;2.00;;;;;;;;;;5113266;28;20088;-83
2022/08/25 10:17:25;;;;;;;7.43;1.90;;;;;;;;;;5113243;28;20020;-84
2022/08/25 10:19:52;;;;;;;4.40;1.60;;;;;;;;;;5122310;27;20026;-84
2022/08/25 10:22:31;;;;;;;7.30;1.80;;;;;;;;;;5134107;27;20026;-84
2022/08/25 10:24:58;;;;;;;4.80;1.70;;;;;;;;;;5112446;27;20107;-83
2022/08/25 10:27:34;;;;;;;5.50;1.60;;;;;;;;;;5107618;28;20027;-84
2022/08/25 10:30:03;;;;;;;3.95;1.70;;;;;;;;;;5129345;27;20026;-84
2022/08/25 10:32:36;;;;;;;10.52;2.10;;;;;;;;;;5115493;28;20525;-84
2022/08/25 10:35:07;;;;;;;5.03;1.70;;;;;;;;;;5095695;28;20062;-83
2022/08/25 10:37:33;;;;;;;;;;;;;;;;;;5112457;27;20028;-84
2022/08/25 10:40:07;;;;;;;3.95;1.80;;;;;;;;;;5113367;28;20247;-84
2022/08/25 10:42:36;;;;;;;10.60;1.60;;;;;;;;;;5113299;28;20020;-84
2022/08/25 10:47:50;;;;;;;7.93;1.80;;;;;;;;;;5093027;28;20544;-84
2022/08/25 10:50:35;;;;;;;3.38;1.50;;;;;;;;;;5112814;28;20448;-82
2022/08/25 10:53:01;;;;;;;3.58;1.85;;;;;;;;;;5110657;28;20027;-83
2022/08/25 10:55:35;;;;;;;4.70;1.48;;;;;;;;;;5094781;28;20027;-84
2022/08/25 10:58:21;;;;;;;7.20;1.60;;;;;;;;;;5113194;28;20028;-84
2022/08/25 11:01:06;;;;;;;5.05;1.67;;;;;;;;;;5071864;28;20486;-84
2022/08/25 11:03:43;;;;;;;9.85;2.10;;;;;;;;;;5113327;28;20095;-83
2022/08/25 11:06:35;;;;;;;4.97;1.60;;;;;;;;;;5113382;28;20015;-84
2022/08/25 11:09:02;;;;;;;;;;;;;;;;;;5113643;28;20095;-84
2022/08/25 11:11:41;;;;;;;6.30;2.55;;;;;;;;;;5113102;28;19914;-84
2022/08/25 11:14:07;;;;;;;3.35;1.65;;;;;;;;;;5117149;28;20035;-84
2022/08/25 11:16:36;;;;;;;5.50;1.75;;;;;;;;;;5133596;28;20098;-84
2022/08/25 11:19:06;;;;;;;5.43;1.73;;;;;;;;;;5126915;28;20055;-83
2022/08/25 11:21:38;;;;;;;4.72;1.60;;;;;;;;;;5121562;28;20016;-84
2022/08/25 11:24:12;;;;;;;5.15;1.77;;;;;;;;;;5120708;28;20023;-84
2022/08/25 11:26:40;;;;;;;4.22;2.00;;;;;;;;;;5134906;28;20391;-84
2022/08/25 11:29:11;;;;;;;6.53;1.73;;;;;;;;;;5100296;28;20033;-84
2022/08/25 11:31:38;;;;;;;9.87;1.90;;;;;;;;;;5113010;28;20032;-84
2022/08/25 11:34:08;;;;;;;2.42;1.63;;;;;;;;;;5112977;28;20289;-85
2022/08/25 11:36:35;;;;;;;5.95;1.90;;;;;;;;;;5112231;28;20069;-84
2022/08/25 11:39:14;;;;;;;5.30;1.73;;;;;;;;;;5112703;28;20026;-84
2022/08/25 11:41:55;;;;;;;7.90;1.80;;;;;;;;;;5124862;28;20019;-84
2022/08/25 11:44:24;;;;;;;6.43;1.60;;;;;;;;;;5117872;28;20030;-84
2022/08/25 11:47:08;;;;;;;3.22;1.85;;;;;;;;;;5114182;28;20026;-84
2022/08/25 11:49:50;;;;;;;5.45;1.85;;;;;;;;;;5116617;28;20024;-84
2022/08/25 11:52:34;;;;;;;5.72;2.30;;;;;;;;;;5116393;28;20103;-85
2022/08/25 11:55:11;;;;;;;4.72;1.70;;;;;;;;;;5116392;28;20453;-85
2022/08/25 11:57:37;;;;;;;3.97;1.83;;;;;;;;;;5116372;28;20023;-84
2022/08/25 12:00:12;;;;;;;7.38;1.90;;;;;;;;;;5097639;28;20048;-86
2022/08/25 12:02:46;;;;;;;5.25;2.35;;;;;;;;;;5097636;28;20020;-82
2022/08/25 12:05:18;;;;;;;3.00;2.08;;;;;;;;;;5116353;28;20032;-81
2022/08/25 12:08:37;;;;;;;6.10;1.88;;;;;;;;;;5116016;28;20016;-83
2022/08/25 12:10:56;;;;;;;4.80;2.08;;;;;;;;;;5115383;28;20027;-82
2022/08/25 12:13:39;;;;;;;6.65;1.60;;;;;;;;;;5116136;28;20039;-79
2022/08/25 12:16:06;;;;;;;7.30;2.00;;;;;;;;;;5116016;28;20377;-81
2022/08/25 12:18:32;;;;;;;6.50;2.15;;;;;;;;;;5115820;28;20024;-80
2022/08/25 12:21:00;;;;;;;4.93;1.98;;;;;;;;;;5115933;28;20024;-80
2022/08/25 12:23:35;;;;;;;4.72;1.63;;;;;;;;;;5115723;28;20482;-80
2022/08/25 12:26:04;;;;;;;5.60;1.90;;;;;;;;;;5097100;28;20355;-78
2022/08/25 12:28:34;;;;;;;3.13;1.73;;;;;;;;;;5115843;28;20031;-79
2022/08/25 12:31:03;;;;;;;4.30;2.03;;;;;;;;;;5115330;28;20020;-78
2022/08/25 12:34:01;;;;;;;4.30;1.90;;;;;;;;;;5115592;28;20051;-79
2022/08/25 12:36:30;;;;;;;8.65;1.90;;;;;;;;;;5070854;28;20058;-78
2022/08/25 12:39:07;;;;;;;7.15;1.98;;;;;;;;;;5115417;28;20509;-79
2022/08/25 12:41:33;;;;;;;4.57;1.50;;;;;;;;;;5116209;28;20027;-77
2022/08/25 12:44:18;;;;;;;2.90;1.77;;;;;;;;;;5115171;28;20020;-78
2022/08/25 12:46:44;;;;;;;4.03;1.90;;;;;;;;;;5115277;28;20031;-78
2022/08/25 12:49:31;;;;;;;7.22;2.10;;;;;;;;;;5115549;28;20046;-81
2022/08/25 12:52:00;;;;;;;4.50;1.73;;;;;;;;;;5115672;28;20041;-81
2022/08/25 12:54:35;;;;;;;6.45;2.17;;;;;;;;;;5096702;28;20027;-82
2022/08/25 12:57:05;;;;;;;3.13;1.63;;;;;;;;;;5111714;28;20023;-81
2022/08/25 12:59:31;;;;;;;10.77;1.88;;;;;;;;;;5094098;28;20118;-79
2022/08/25 13:02:01;;;;;;;3.63;1.85;;;;;;;;;;5094472;28;20035;-77
2022/08/25 13:04:39;;;;;;;4.07;1.60;;;;;;;;;;5097679;27;20447;-80
2022/08/25 13:07:12;;;;;;;6.85;1.75;;;;;;;;;;5119212;27;20046;-80
2022/08/25 13:10:04;;;;;;;8.02;1.83;;;;;;;;;;5135250;27;20072;-79
2022/08/25 13:12:39;;;;;;;6.03;1.85;;;;;;;;;;5072947;28;20466;-79
2022/08/25 13:15:05;;;;;;;6.07;1.83;;;;;;;;;;5100888;28;20051;-79
2022/08/25 13:17:33;;;;;;;5.63;1.70;;;;;;;;;;5102085;28;20024;-79
2022/08/25 13:20:16;;;;;;;4.78;1.80;;;;;;;;;;5101429;27;20081;-80
2022/08/25 13:22:49;;;;;;;4.93;1.77;;;;;;;;;;5102006;28;20054;-80
2022/08/25 13:25:20;;;;;;;2.40;1.63;;;;;;;;;;5103929;28;20028;-80
2022/08/25 13:27:56;;;;;;;3.50;1.70;;;;;;;;;;5103079;28;20028;-79
2022/08/25 13:30:30;;;;;;;6.07;1.60;;;;;;;;;;5104074;27;20106;-80
2022/08/25 13:32:57;;;;;;;5.22;1.85;;;;;;;;;;5104487;28;20474;-80
2022/08/25 13:35:25;;;;;;;2.42;1.40;;;;;;;;;;5099067;28;20020;-81
2022/08/25 13:37:52;;;;;;;3.97;1.77;;;;;;;;;;5099401;28;20020;-80
2022/08/25 13:40:26;;;;;;;3.28;1.90;;;;;;;;;;5104622;28;20012;-80
2022/08/25 13:42:58;;;;;;;4.25;1.80;;;;;;;;;;5114071;28;20035;-80
2022/08/25 13:45:27;;;;;;;2.25;1.67;;;;;;;;;;5103283;28;20035;-80
2022/08/25 13:47:53;;;;;;;5.82;1.70;;;;;;;;;;5113993;28;20023;-80
2022/08/25 13:50:31;;;;;;;5.05;1.70;;;;;;;;;;5103514;28;20024;-80
2022/08/25 13:53:01;;;;;;;5.97;2.08;;;;;;;;;;5101912;28;20035;-80
2022/08/25 13:55:30;;;;;;;4.88;1.70;;;;;;;;;;5107468;28;20415;-80
2022/08/25 13:58:00;;;;;;;6.50;2.17;;;;;;;;;;5112999;28;20051;-81
2022/08/25 14:00:31;;;;;;;10.48;2.63;;;;;;;;;;5111852;28;20065;-81
2022/08/25 14:02:58;;;;;;;6.95;1.63;;;;;;;;;;5101109;28;20415;-81
2022/08/25 14:05:31;;;;;;;4.35;1.50;;;;;;;;;;5113889;28;20023;-81
2022/08/25 14:07:57;;;;;;;7.90;2.00;;;;;;;;;;5100023;28;20073;-81
2022/08/25 14:10:42;;;;;;;3.78;1.90;;;;;;;;;;5113159;28;20355;-81
2022/08/25 14:13:14;;;;;;;4.30;1.80;;;;;;;;;;5100578;28;20063;-82
2022/08/25 14:15:41;;;;;;;5.20;1.83;;;;;;;;;;5112079;28;20024;-82
2022/08/25 14:18:14;;;;;;;6.30;1.70;;;;;;;;;;5114924;27;20022;-81
2022/08/25 14:20:44;;;;;;;4.95;2.08;;;;;;;;;;5113567;27;20474;-81
2022/08/25 14:23:14;;;;;;;6.47;1.70;;;;;;;;;;5113327;28;20019;-81
2022/08/25 14:25:41;;;;;;;8.27;2.00;;;;;;;;;;5106594;28;20026;-81
2022/08/25 14:28:10;;;;;;;4.43;1.70;;;;;;;;;;5117951;27;20273;-81
2022/08/25 14:30:38;;;;;;;4.30;1.85;;;;;;;;;;5124260;27;20038;-85
2022/08/25 14:33:04;;;;;;;6.10;1.80;;;;;;;;;;5098932;28;20042;-82
2022/08/25 14:35:31;;;;;;;6.80;1.70;;;;;;;;;;5113484;28;20028;-81
2022/08/25 14:37:57;;;;;;;3.42;1.88;;;;;;;;;;5115617;28;20019;-81
2022/08/25 14:40:23;;;;;;;4.07;1.70;;;;;;;;;;5117198;28;20024;-81
2022/08/25 14:42:49;;;;;;;7.55;1.77;;;;;;;;;;5116328;28;20019;-81
2022/08/25 14:45:16;;;;;;;4.75;2.17;;;;;;;;;;5118553;28;20031;-81
2022/08/25 14:47:43;;;;;;;9.70;2.05;;;;;;;;;;5117171;28;20031;-81
2022/08/25 14:50:10;;;;;;;5.82;1.63;;;;;;;;;;5098028;28;20028;-82
2022/08/25 14:52:36;;;;;;;3.03;1.60;;;;;;;;;;5093418;28;20031;-80
2022/08/25 14:55:03;;;;;;;2.70;1.70;;;;;;;;;;5116161;28;20409;-80
2022/08/25 14:57:29;;;;;;;8.90;1.75;;;;;;;;;;5107688;28;20024;-81
2022/08/25 14:59:55;;;;;;;6.75;1.83;;;;;;;;;;5105435;28;20051;-81
2022/08/25 15:02:22;;;;;;;10.20;2.15;;;;;;;;;;5098192;28;20024;-81
2022/08/25 15:04:57;;;;;;;3.40;1.65;;;;;;;;;;5105434;28;20027;-80